Aegean Princess — ZDID9 — position and weather

sailwx.info

Track history (hours):
 
Tides and Currents Weather Stations Pressure Air Temp Water Temp Dewpoint Dewpoint Depression Visibility Wind Speed Wind Dir Waves Ship Positions

Aegean Princess

Last reported at 2014-Aug-22 17:25 UTC. Time now 2014-Aug-30 22:30 UTC.
Position N 36°08' W 005°22'.
Warning: this ship's position is 8 days out of date.

Length 100 m; draft 7.1 m.

Type: Ship. MMSI: 236111476.

Date/timePositionNaut miles runAvg speedWind from/ knotsBaromVisibWave heightAir tempDewpointWater temp
2014-Aug-22 17:25N 36°08' W 005°22'0 0.0
2014-Aug-22 16:31N 36°08' W 005°22'0 0.0
2014-Aug-22 15:31N 36°08' W 005°22'3 0.2
2014-Aug-22 02:25N 36°06' W 005°19'2 1.0
2014-Aug-22 00:14N 36°07' W 005°22'3 0.4
2014-Aug-21 18:15N 36°07' W 005°18'0 0.0
2014-Aug-21 17:30N 36°07' W 005°18'0 0.1
2014-Aug-21 16:33N 36°07' W 005°18'0 0.1
2014-Aug-21 15:21N 36°07' W 005°18'0 0.0
2014-Aug-21 14:29N 36°07' W 005°18'0 0.0
2014-Aug-21 12:29N 36°07' W 005°18'0 0.0
2014-Aug-20 23:14N 36°07' W 005°18'0 0.0
2014-Aug-20 22:29N 36°07' W 005°18'3 1.8
2014-Aug-20 20:33N 36°08' W 005°23'0 0.3
2014-Aug-20 19:33N 36°08' W 005°23'0 0.0
2014-Aug-20 18:33N 36°08' W 005°23'0 0.1
2014-Aug-20 17:11N 36°08' W 005°23'0 0.4
2014-Aug-20 16:33N 36°09' W 005°23'  
Track history (hours):
 
Tides and Currents Weather Stations Pressure Air Temp Water Temp Dewpoint Dewpoint Depression Visibility Wind Speed Wind Dir Waves Ship Positions

Aegean Princess

Last reported at 2014-Aug-22 17:25 UTC. Time now 2014-Aug-30 22:30 UTC.
Position N 36°08' W 005°22'.
Warning: this ship's position is 8 days out of date.

Length 100 m; draft 7.1 m.

Type: Ship. MMSI: 236111476.

Date/timePositionNaut miles runAvg speedWind from/ knotsBaromVisibWave heightAir tempDewpointWater temp
2014-Aug-22 17:25N 36°08' W 005°22'0 0.0
2014-Aug-22 16:31N 36°08' W 005°22'0 0.0
2014-Aug-22 15:31N 36°08' W 005°22'3 0.2
2014-Aug-22 02:25N 36°06' W 005°19'2 1.0
2014-Aug-22 00:14N 36°07' W 005°22'3 0.4
2014-Aug-21 18:15N 36°07' W 005°18'0 0.0
2014-Aug-21 17:30N 36°07' W 005°18'0 0.1
2014-Aug-21 16:33N 36°07' W 005°18'0 0.1
2014-Aug-21 15:21N 36°07' W 005°18'0 0.0
2014-Aug-21 14:29N 36°07' W 005°18'0 0.0
2014-Aug-21 12:29N 36°07' W 005°18'0 0.0
2014-Aug-20 23:14N 36°07' W 005°18'0 0.0
2014-Aug-20 22:29N 36°07' W 005°18'3 1.8
2014-Aug-20 20:33N 36°08' W 005°23'0 0.3
2014-Aug-20 19:33N 36°08' W 005°23'0 0.0
2014-Aug-20 18:33N 36°08' W 005°23'0 0.1
2014-Aug-20 17:11N 36°08' W 005°23'0 0.4
2014-Aug-20 16:33N 36°09' W 005°23'  

Dump ship's entire track history